CheckWX is a tool to help pilots better visualize weather data.  It is not intended as a substitute for an official pre-flight weather briefing.

07:29:23 UTC

FQIN METAR
Inhambane Airport
Inhambabe, Mozambique
Current

1 hour ago

FQIN 210600Z 00000KT CAVOK 20/19 Q1018
Observed
May-21 @ 06:00 UTC
Visibility
10,000+ meters
Flight Rules
VFR
Cloud Levels
  • Clear skies
Temperature
20°C / 68°F
Dewpoint
19°C / 66°F
Humidity
94%
Altimeter
30.06" Hg
Pressure
1017.92 hPa
Previous

2 hours ago

FQIN 210500Z 00000KT CAVOK 16/14 Q1018
Observed
May-21 @ 05:00 UTC
Visibility
10,000+ meters
Flight Rules
VFR
Cloud Levels
  • Clear skies
Temperature
16°C / 61°F
Dewpoint
14°C / 57°F
Humidity
88%
Altimeter
30.06" Hg
Pressure
1017.92 hPa
Previous

12 hours ago

FQIN 201900Z 00000KT CAVOK 19/18 Q1018
Observed
May-20 @ 19:00 UTC
Visibility
10,000+ meters
Flight Rules
VFR
Cloud Levels
  • Clear skies
Temperature
19°C / 66°F
Dewpoint
18°C / 64°F
Humidity
94%
Altimeter
30.06" Hg
Pressure
1017.92 hPa